• Join FlightAware (Why Join?)
  • Login
  • US Flag 
04:49PM EST


 

Airport Tracker/Info


-or-


 

Live Flight TrackerFlight Track Log ✈ FLG3735 ✈ 03-May-2013 ✈ KDTW - KALB

Flight Track Log - Related Links

Times and Time Zones

All times are in EDT time to prevent confusion due to time zone crossing. See the FLG3735 flight status page for this flight to view local times or setup timezone preferences in your user account.

Time Position Orientation Groundspeed Altitude Reporting Facility
EDT Latitude Longitude Course Direction KTS MPH feet Rate Location/Type
10:12PM 42.2314 -83.3342 90° East 164 189 1,300  Level Cleveland Center
10:13PM 42.2844 -83.2889 32° Northeast 220 253 3,700 1,920 Climbing Cleveland Center
10:14PM 42.3483 -83.2381 30° Northeast 283 326 5,500 2,160 Climbing Cleveland Center
10:15PM 42.3079 -82.7942 75° East  Level FlightAware Approximate
10:15PM 42.3753 -83.1494 68° East 277 319 8,100  Level Cleveland Center
10:16PM 42.3264 -82.6527 82° East  Level FlightAware Approximate
10:16PM 42.3503 -83.0528 109° East 293 337 10,800  Level Cleveland Center
10:17PM 42.3500 -82.5132 90° East  Level FlightAware Approximate
10:17PM 42.3253 -82.9536 109° East 303 349 11,600  Level Cleveland Center
10:18PM 42.3403 -82.8275 81° East 315 362 13,400 1,800 Climbing Cleveland Center
10:19PM 42.3511 -82.6931 84° East 335 386 15,200 1,500 Climbing Cleveland Center
10:20PM 42.3600 -82.5531 85° East 352 405 16,500 1,200 Climbing Cleveland Center
10:21PM 42.3644 -82.4097 88° East 370 426 17,700 1,080 Climbing Cleveland Center
10:22PM 42.3583 -82.2664 93° East 377 434 18,700 1,140 Climbing Cleveland Center
10:23PM 42.3542 -82.1061 92° East 382 440 20,000 1,200 Climbing Cleveland Center
10:24PM 42.3456 -81.9597 95° East 387 445 21,100 960 Climbing Cleveland Center
10:25PM 42.3411 -81.8136 92° East 387 445 22,000 660 Climbing Cleveland Center
10:26PM 42.3342 -81.6589 93° East 393 452 22,500 420 Climbing Cleveland Center
10:27PM 42.3272 -81.5211 94° East 407 468 22,900 420 Climbing Cleveland Center
10:28PM 42.3200 -81.3583 93° East 420 483 23,400 480 Climbing Cleveland Center
10:29PM 42.3106 -81.1925 94° East 430 495 23,900 480 Climbing Cleveland Center
10:30PM 42.3031 -81.0294 94° East 430 495 24,400 540 Climbing Cleveland Center
10:31PM 42.2953 -80.8667 94° East 436 502 25,000 540 Climbing Cleveland Center
10:32PM 42.2850 -80.6869 94° East 441 507 25,500 480 Climbing Cleveland Center
10:33PM 42.2747 -80.5242 95° East 441 507 26,000 480 Climbing Cleveland Center
10:34PM 42.2661 -80.3586 94° East 441 507 26,500 480 Climbing Cleveland Center
10:35PM 42.2575 -80.1961 94° East 441 507 27,000 480 Climbing Cleveland Center
10:36PM 42.2464 -80.0333 95° East 441 507 27,500 420 Climbing Cleveland Center
10:37PM 42.2433 -79.8875 92° East 436 502 27,900 420 Climbing Cleveland Center
10:38PM 42.2611 -79.7247 82° East 436 502 28,400 480 Climbing Cleveland Center
10:39PM 42.2786 -79.5617 82° East 436 502 28,900 540 Climbing Cleveland Center
10:40PM 42.2958 -79.4014 82° East 441 507 29,500 540 Climbing Cleveland Center
10:41PM 42.3106 -79.2383 83° East 441 507 30,000 480 Climbing Cleveland Center
10:42PM 42.3294 -79.0778 81° East 441 507 30,500 480 Climbing Cleveland Center
10:43PM 42.3461 -78.9144 82° East 436 502 31,000 240 Climbing Cleveland Center
10:44PM 42.3622 -78.7511 82° East 436 502 31,000  Level Cleveland Center
10:45PM 42.3803 -78.5847 82° East 442 509 31,000  Level Cleveland Center
10:46PM 42.3961 -78.4156 83° East 447 514 31,000  Level Cleveland Center
10:47PM 42.4117 -78.2489 83° East 447 514 31,000  Level Cleveland Center
10:48PM 42.4267 -78.0769 83° East 447 514 31,000  Level Cleveland Center
10:49PM 42.4439 -77.9072 82° East 447 514 31,000 -120 Level Cleveland Center
10:50PM 42.4581 -77.7208 84° East 447 514 30,800 -600 Descending Cleveland Center
10:51PM 42.4767 -77.5483 82° East 447 514 29,800 -540 Descending Cleveland Center
10:53PM 42.5086 -77.1586 84° East 469 540 29,000 -240 Descending Boston Center
10:54PM 42.5239 -76.9878 83° East 459 528 29,000  Level Boston Center
10:55PM 42.5389 -76.8225 83° East 459 528 29,000  Level Boston Center
10:56PM 42.5514 -76.6542 84° East 454 522 29,000  Level Boston Center
10:57PM 42.5661 -76.4831 83° East 454 522 29,000 -480 Level Boston Center
10:58PM 42.5803 -76.3119 84° East 454 522 28,100 -600 Descending Boston Center
10:59PM 42.5922 -76.1433 84° East 454 522 27,900 -540 Descending Boston Center
11:00PM 42.6058 -75.9750 84° East 459 528 27,100 -960 Descending Boston Center
11:01PM 42.6153 -75.8033 86° East 453 521 26,000 -1,080 Descending Boston Center
11:02PM 42.6306 -75.6406 83° East 448 516 25,000 -1,140 Descending Boston Center
11:03PM 42.6411 -75.4800 85° East 437 503 23,800 -1,500 Descending Boston Center
11:04PM 42.6539 -75.3142 84° East 437 503 22,000 -1,620 Descending Boston Center
11:05PM 42.6611 -75.1844 86° East 437 503 20,600 -1,800 Descending Boston Center
11:06PM 42.6739 -74.9986 85° East 423 487 18,400 -1,980 Descending Boston Center
11:07PM 42.6781 -74.9056 86° East 404 465 17,600 -1,440 Descending Boston Center
11:07PM 42.6833 -74.8494 83° East 409 471 17,000 -1,920 Descending Boston Center
11:08PM 42.6931 -74.6858 85° East 398 458 14,800 -1,920 Descending Boston Center
11:09PM 42.7039 -74.5422 84° East 387 445 13,200 -1,680 Descending Boston Center
11:10PM 42.7103 -74.4294 86° East 357 411 11,500 -1,800 Descending Boston Center
11:11PM 42.7164 -74.3136 86° East 284 327 9,800 -1,920 Descending Boston Center
11:12PM 42.7242 -74.2122 84° East 267 307 7,800 -1,980 Descending Boston Center
11:13PM 42.7297 -74.1192 85° East 264 304 6,100 -1,500 Descending Boston Center
11:14PM 42.7789 -74.0497 46° Northeast 232 267 5,000 -1,080 Descending Boston Center
11:15PM 42.8253 -73.9969 40° Northeast 218 251 4,000 -960 Descending Boston Center
11:16PM 42.8575 -73.9328 56° Northeast 201 231 3,100 -900 Descending Boston Center